sensor_id;sensor_type;location;lat;lon;timestamp;P1;durP1;ratioP1;P2;durP2;ratioP2
17171;SDS011;8701;50.150;8.756;2024-03-22T00:03:17;15.63;;;8.90;;
17171;SDS011;8701;50.150;8.756;2024-03-22T00:07:19;13.30;;;8.97;;
17171;SDS011;8701;50.150;8.756;2024-03-22T00:11:22;13.40;;;9.17;;
17171;SDS011;8701;50.150;8.756;2024-03-22T00:15:25;12.83;;;8.73;;
17171;SDS011;8701;50.150;8.756;2024-03-22T00:19:27;11.47;;;8.67;;
17171;SDS011;8701;50.150;8.756;2024-03-22T00:23:30;8.33;;;6.40;;
17171;SDS011;8701;50.150;8.756;2024-03-22T00:27:32;7.80;;;6.40;;
17171;SDS011;8701;50.150;8.756;2024-03-22T00:31:36;10.77;;;7.03;;
17171;SDS011;8701;50.150;8.756;2024-03-22T00:35:38;9.70;;;6.83;;
17171;SDS011;8701;50.150;8.756;2024-03-22T00:39:40;11.60;;;7.07;;
17171;SDS011;8701;50.150;8.756;2024-03-22T00:43:42;12.27;;;8.33;;
17171;SDS011;8701;50.150;8.756;2024-03-22T00:47:46;12.10;;;7.70;;
17171;SDS011;8701;50.150;8.756;2024-03-22T00:51:48;12.43;;;8.20;;
17171;SDS011;8701;50.150;8.756;2024-03-22T00:55:50;16.00;;;9.70;;
17171;SDS011;8701;50.150;8.756;2024-03-22T00:59:52;16.03;;;9.87;;
17171;SDS011;8701;50.150;8.756;2024-03-22T01:03:56;12.20;;;8.77;;
17171;SDS011;8701;50.150;8.756;2024-03-22T01:07:58;13.13;;;8.80;;
17171;SDS011;8701;50.150;8.756;2024-03-22T01:12:00;14.60;;;9.50;;
17171;SDS011;8701;50.150;8.756;2024-03-22T01:16:02;12.10;;;8.60;;
17171;SDS011;8701;50.150;8.756;2024-03-22T01:20:07;13.30;;;9.20;;
17171;SDS011;8701;50.150;8.756;2024-03-22T01:24:10;14.90;;;9.50;;
17171;SDS011;8701;50.150;8.756;2024-03-22T01:28:12;14.80;;;8.57;;
17171;SDS011;8701;50.150;8.756;2024-03-22T01:32:14;15.50;;;9.70;;
17171;SDS011;8701;50.150;8.756;2024-03-22T01:36:18;13.03;;;8.93;;
17171;SDS011;8701;50.150;8.756;2024-03-22T01:40:20;15.07;;;10.10;;
17171;SDS011;8701;50.150;8.756;2024-03-22T01:44:26;14.63;;;9.17;;
17171;SDS011;8701;50.150;8.756;2024-03-22T01:48:29;16.03;;;9.40;;
17171;SDS011;8701;50.150;8.756;2024-03-22T01:52:32;14.10;;;8.27;;
17171;SDS011;8701;50.150;8.756;2024-03-22T01:56:35;13.77;;;7.87;;
17171;SDS011;8701;50.150;8.756;2024-03-22T02:00:39;14.27;;;8.83;;
17171;SDS011;8701;50.150;8.756;2024-03-22T02:04:41;13.13;;;8.60;;
17171;SDS011;8701;50.150;8.756;2024-03-22T02:08:44;11.77;;;8.50;;
17171;SDS011;8701;50.150;8.756;2024-03-22T02:12:47;11.60;;;8.37;;
17171;SDS011;8701;50.150;8.756;2024-03-22T02:16:49;16.13;;;10.33;;
17171;SDS011;8701;50.150;8.756;2024-03-22T02:20:50;13.17;;;9.70;;
17171;SDS011;8701;50.150;8.756;2024-03-22T02:24:54;15.20;;;9.17;;
17171;SDS011;8701;50.150;8.756;2024-03-22T02:28:56;12.90;;;8.83;;
17171;SDS011;8701;50.150;8.756;2024-03-22T02:32:58;13.53;;;9.70;;
17171;SDS011;8701;50.150;8.756;2024-03-22T02:37:00;16.83;;;9.97;;
17171;SDS011;8701;50.150;8.756;2024-03-22T02:41:05;18.10;;;10.37;;
17171;SDS011;8701;50.150;8.756;2024-03-22T02:45:07;20.30;;;8.90;;
17171;SDS011;8701;50.150;8.756;2024-03-22T02:49:10;12.30;;;8.40;;
17171;SDS011;8701;50.150;8.756;2024-03-22T02:53:12;11.07;;;7.77;;
17171;SDS011;8701;50.150;8.756;2024-03-22T02:57:16;13.60;;;8.60;;
17171;SDS011;8701;50.150;8.756;2024-03-22T03:01:20;12.63;;;8.93;;
17171;SDS011;8701;50.150;8.756;2024-03-22T03:05:22;17.47;;;10.77;;
17171;SDS011;8701;50.150;8.756;2024-03-22T03:09:25;12.83;;;9.13;;
17171;SDS011;8701;50.150;8.756;2024-03-22T03:13:29;15.73;;;9.83;;
17171;SDS011;8701;50.150;8.756;2024-03-22T03:17:31;11.90;;;8.57;;
17171;SDS011;8701;50.150;8.756;2024-03-22T03:21:33;13.37;;;7.93;;
17171;SDS011;8701;50.150;8.756;2024-03-22T03:25:35;11.13;;;7.97;;
17171;SDS011;8701;50.150;8.756;2024-03-22T03:29:39;12.33;;;8.67;;
17171;SDS011;8701;50.150;8.756;2024-03-22T03:33:41;17.43;;;9.00;;
17171;SDS011;8701;50.150;8.756;2024-03-22T03:37:43;14.37;;;9.70;;
17171;SDS011;8701;50.150;8.756;2024-03-22T03:41:46;18.07;;;10.20;;
17171;SDS011;8701;50.150;8.756;2024-03-22T03:45:49;11.87;;;8.40;;
17171;SDS011;8701;50.150;8.756;2024-03-22T03:49:51;13.43;;;10.10;;
17171;SDS011;8701;50.150;8.756;2024-03-22T03:53:54;13.10;;;9.67;;
17171;SDS011;8701;50.150;8.756;2024-03-22T03:57:56;16.80;;;10.13;;
17171;SDS011;8701;50.150;8.756;2024-03-22T04:01:59;16.97;;;9.80;;
17171;SDS011;8701;50.150;8.756;2024-03-22T04:06:02;17.23;;;10.30;;
17171;SDS011;8701;50.150;8.756;2024-03-22T04:10:04;16.70;;;9.80;;
17171;SDS011;8701;50.150;8.756;2024-03-22T04:14:07;12.20;;;8.87;;
17171;SDS011;8701;50.150;8.756;2024-03-22T04:18:11;17.60;;;10.10;;
17171;SDS011;8701;50.150;8.756;2024-03-22T04:22:13;14.67;;;9.73;;
17171;SDS011;8701;50.150;8.756;2024-03-22T04:26:15;14.50;;;9.47;;
17171;SDS011;8701;50.150;8.756;2024-03-22T04:30:17;14.20;;;9.77;;
17171;SDS011;8701;50.150;8.756;2024-03-22T04:34:21;16.50;;;10.73;;
17171;SDS011;8701;50.150;8.756;2024-03-22T04:38:23;16.60;;;9.80;;
17171;SDS011;8701;50.150;8.756;2024-03-22T04:42:26;14.53;;;10.30;;
17171;SDS011;8701;50.150;8.756;2024-03-22T04:46:28;19.70;;;11.53;;
17171;SDS011;8701;50.150;8.756;2024-03-22T04:50:31;18.83;;;10.67;;
17171;SDS011;8701;50.150;8.756;2024-03-22T04:54:33;14.43;;;9.90;;
17171;SDS011;8701;50.150;8.756;2024-03-22T04:58:36;15.80;;;10.83;;
17171;SDS011;8701;50.150;8.756;2024-03-22T05:02:38;16.27;;;10.50;;
17171;SDS011;8701;50.150;8.756;2024-03-22T05:06:42;16.00;;;10.33;;
17171;SDS011;8701;50.150;8.756;2024-03-22T05:10:45;18.73;;;11.33;;
17171;SDS011;8701;50.150;8.756;2024-03-22T05:14:47;14.33;;;10.13;;
17171;SDS011;8701;50.150;8.756;2024-03-22T05:18:49;22.27;;;11.23;;
17171;SDS011;8701;50.150;8.756;2024-03-22T05:22:52;19.10;;;11.50;;
17171;SDS011;8701;50.150;8.756;2024-03-22T05:26:55;17.33;;;11.90;;
17171;SDS011;8701;50.150;8.756;2024-03-22T05:30:57;15.23;;;10.27;;
17171;SDS011;8701;50.150;8.756;2024-03-22T05:34:59;17.73;;;11.57;;
17171;SDS011;8701;50.150;8.756;2024-03-22T05:39:03;18.50;;;11.73;;
17171;SDS011;8701;50.150;8.756;2024-03-22T05:43:05;23.17;;;11.10;;
17171;SDS011;8701;50.150;8.756;2024-03-22T05:47:07;13.80;;;10.00;;
17171;SDS011;8701;50.150;8.756;2024-03-22T05:51:09;17.17;;;11.20;;
17171;SDS011;8701;50.150;8.756;2024-03-22T05:55:13;17.13;;;10.60;;
17171;SDS011;8701;50.150;8.756;2024-03-22T05:59:15;17.50;;;10.43;;
17171;SDS011;8701;50.150;8.756;2024-03-22T06:03:17;16.43;;;10.00;;
17171;SDS011;8701;50.150;8.756;2024-03-22T06:07:19;18.00;;;11.10;;
17171;SDS011;8701;50.150;8.756;2024-03-22T06:11:23;16.33;;;11.10;;
17171;SDS011;8701;50.150;8.756;2024-03-22T06:15:25;15.73;;;10.47;;
17171;SDS011;8701;50.150;8.756;2024-03-22T06:19:27;20.23;;;11.23;;
17171;SDS011;8701;50.150;8.756;2024-03-22T06:23:29;14.80;;;10.70;;
17171;SDS011;8701;50.150;8.756;2024-03-22T06:27:32;15.80;;;10.37;;
17171;SDS011;8701;50.150;8.756;2024-03-22T06:31:34;15.37;;;10.20;;
17171;SDS011;8701;50.150;8.756;2024-03-22T06:35:37;17.30;;;11.00;;
17171;SDS011;8701;50.150;8.756;2024-03-22T06:39:39;16.07;;;10.33;;
17171;SDS011;8701;50.150;8.756;2024-03-22T06:43:42;22.70;;;11.03;;
17171;SDS011;8701;50.150;8.756;2024-03-22T06:47:45;18.50;;;10.47;;
17171;SDS011;8701;50.150;8.756;2024-03-22T06:51:47;18.10;;;11.77;;
17171;SDS011;8701;50.150;8.756;2024-03-22T06:55:49;23.03;;;14.30;;
17171;SDS011;8701;50.150;8.756;2024-03-22T06:59:52;19.33;;;11.13;;
17171;SDS011;8701;50.150;8.756;2024-03-22T07:03:55;15.17;;;10.43;;
17171;SDS011;8701;50.150;8.756;2024-03-22T07:07:57;14.97;;;9.83;;
17171;SDS011;8701;50.150;8.756;2024-03-22T07:11:58;16.93;;;8.97;;
17171;SDS011;8701;50.150;8.756;2024-03-22T07:16:02;14.67;;;9.00;;
17171;SDS011;8701;50.150;8.756;2024-03-22T07:20:06;15.07;;;8.80;;
17171;SDS011;8701;50.150;8.756;2024-03-22T07:24:09;13.37;;;7.87;;
17171;SDS011;8701;50.150;8.756;2024-03-22T07:28:10;11.03;;;7.80;;
17171;SDS011;8701;50.150;8.756;2024-03-22T07:32:13;12.00;;;7.67;;
17171;SDS011;8701;50.150;8.756;2024-03-22T07:36:15;22.30;;;9.47;;
17171;SDS011;8701;50.150;8.756;2024-03-22T07:40:18;12.00;;;7.20;;
17171;SDS011;8701;50.150;8.756;2024-03-22T07:44:20;14.90;;;9.17;;
17171;SDS011;8701;50.150;8.756;2024-03-22T07:48:27;10.70;;;7.33;;
17171;SDS011;8701;50.150;8.756;2024-03-22T07:52:29;13.43;;;7.90;;
17171;SDS011;8701;50.150;8.756;2024-03-22T07:56:31;10.97;;;7.40;;
17171;SDS011;8701;50.150;8.756;2024-03-22T08:00:34;17.10;;;9.07;;
17171;SDS011;8701;50.150;8.756;2024-03-22T08:04:37;14.20;;;9.07;;
17171;SDS011;8701;50.150;8.756;2024-03-22T08:08:39;12.47;;;9.00;;
17171;SDS011;8701;50.150;8.756;2024-03-22T08:12:41;15.37;;;8.30;;
17171;SDS011;8701;50.150;8.756;2024-03-22T08:16:44;18.13;;;9.07;;
17171;SDS011;8701;50.150;8.756;2024-03-22T08:20:47;18.77;;;9.73;;
17171;SDS011;8701;50.150;8.756;2024-03-22T08:24:49;14.23;;;8.47;;
17171;SDS011;8701;50.150;8.756;2024-03-22T08:28:52;15.47;;;9.00;;
17171;SDS011;8701;50.150;8.756;2024-03-22T08:32:54;14.00;;;8.43;;
17171;SDS011;8701;50.150;8.756;2024-03-22T08:36:57;15.07;;;8.47;;
17171;SDS011;8701;50.150;8.756;2024-03-22T08:40:59;12.30;;;8.53;;
17171;SDS011;8701;50.150;8.756;2024-03-22T08:45:02;13.50;;;8.40;;
17171;SDS011;8701;50.150;8.756;2024-03-22T08:49:05;13.13;;;7.80;;
17171;SDS011;8701;50.150;8.756;2024-03-22T08:53:08;11.47;;;8.53;;
17171;SDS011;8701;50.150;8.756;2024-03-22T08:57:10;14.50;;;7.73;;
17171;SDS011;8701;50.150;8.756;2024-03-22T09:01:13;15.50;;;8.87;;
17171;SDS011;8701;50.150;8.756;2024-03-22T09:05:16;16.80;;;8.40;;
17171;SDS011;8701;50.150;8.756;2024-03-22T09:09:20;13.80;;;7.50;;
17171;SDS011;8701;50.150;8.756;2024-03-22T09:13:22;11.63;;;7.60;;
17171;SDS011;8701;50.150;8.756;2024-03-22T09:17:24;11.27;;;6.97;;
17171;SDS011;8701;50.150;8.756;2024-03-22T09:21:26;12.87;;;6.83;;
17171;SDS011;8701;50.150;8.756;2024-03-22T09:25:30;14.63;;;7.00;;
17171;SDS011;8701;50.150;8.756;2024-03-22T09:29:34;8.10;;;5.63;;
17171;SDS011;8701;50.150;8.756;2024-03-22T09:33:36;9.60;;;6.50;;
17171;SDS011;8701;50.150;8.756;2024-03-22T09:37:38;11.90;;;6.40;;
17171;SDS011;8701;50.150;8.756;2024-03-22T09:41:43;15.83;;;7.73;;
17171;SDS011;8701;50.150;8.756;2024-03-22T09:45:45;9.87;;;5.93;;
17171;SDS011;8701;50.150;8.756;2024-03-22T09:49:48;9.63;;;6.53;;
17171;SDS011;8701;50.150;8.756;2024-03-22T09:53:51;13.90;;;6.77;;
17171;SDS011;8701;50.150;8.756;2024-03-22T09:57:56;9.47;;;6.03;;
17171;SDS011;8701;50.150;8.756;2024-03-22T10:01:58;8.00;;;5.70;;
17171;SDS011;8701;50.150;8.756;2024-03-22T10:06:03;11.90;;;6.20;;
17171;SDS011;8701;50.150;8.756;2024-03-22T10:10:06;7.97;;;6.20;;
17171;SDS011;8701;50.150;8.756;2024-03-22T10:14:11;12.03;;;5.43;;
17171;SDS011;8701;50.150;8.756;2024-03-22T10:18:14;10.20;;;6.37;;
17171;SDS011;8701;50.150;8.756;2024-03-22T10:22:16;10.37;;;6.17;;
17171;SDS011;8701;50.150;8.756;2024-03-22T10:26:18;7.87;;;5.43;;
17171;SDS011;8701;50.150;8.756;2024-03-22T10:30:22;6.63;;;5.93;;
17171;SDS011;8701;50.150;8.756;2024-03-22T10:34:25;9.67;;;5.90;;
17171;SDS011;8701;50.150;8.756;2024-03-22T10:38:29;9.23;;;5.13;;
17171;SDS011;8701;50.150;8.756;2024-03-22T10:42:32;11.97;;;5.60;;
17171;SDS011;8701;50.150;8.756;2024-03-22T10:46:36;7.37;;;5.20;;
17171;SDS011;8701;50.150;8.756;2024-03-22T10:50:40;6.93;;;5.00;;
17171;SDS011;8701;50.150;8.756;2024-03-22T10:54:43;7.93;;;4.87;;
17171;SDS011;8701;50.150;8.756;2024-03-22T10:58:48;8.10;;;4.97;;
17171;SDS011;8701;50.150;8.756;2024-03-22T11:02:54;12.57;;;4.87;;
17171;SDS011;8701;50.150;8.756;2024-03-22T11:06:57;6.87;;;5.00;;
17171;SDS011;8701;50.150;8.756;2024-03-22T11:11:08;11.20;;;5.60;;
17171;SDS011;8701;50.150;8.756;2024-03-22T11:15:11;6.37;;;5.10;;
17171;SDS011;8701;50.150;8.756;2024-03-22T11:19:15;8.00;;;6.00;;
17171;SDS011;8701;50.150;8.756;2024-03-22T11:23:18;12.17;;;5.70;;
17171;SDS011;8701;50.150;8.756;2024-03-22T11:27:20;10.03;;;5.60;;
17171;SDS011;8701;50.150;8.756;2024-03-22T11:31:22;7.73;;;6.40;;
17171;SDS011;8701;50.150;8.756;2024-03-22T11:35:29;6.97;;;5.47;;
17171;SDS011;8701;50.150;8.756;2024-03-22T11:39:31;7.60;;;6.07;;
17171;SDS011;8701;50.150;8.756;2024-03-22T11:43:35;9.90;;;6.13;;
17171;SDS011;8701;50.150;8.756;2024-03-22T11:47:37;7.37;;;5.83;;
17171;SDS011;8701;50.150;8.756;2024-03-22T11:51:41;8.90;;;6.50;;
17171;SDS011;8701;50.150;8.756;2024-03-22T11:55:43;11.13;;;6.50;;
17171;SDS011;8701;50.150;8.756;2024-03-22T11:59:45;8.30;;;5.97;;
17171;SDS011;8701;50.150;8.756;2024-03-22T12:03:47;16.30;;;7.03;;
17171;SDS011;8701;50.150;8.756;2024-03-22T12:07:52;11.13;;;6.97;;
17171;SDS011;8701;50.150;8.756;2024-03-22T12:11:54;10.17;;;7.47;;
17171;SDS011;8701;50.150;8.756;2024-03-22T12:15:57;10.63;;;6.93;;
17171;SDS011;8701;50.150;8.756;2024-03-22T12:19:59;9.33;;;6.50;;
17171;SDS011;8701;50.150;8.756;2024-03-22T12:24:03;8.80;;;7.13;;
17171;SDS011;8701;50.150;8.756;2024-03-22T12:28:06;8.60;;;6.20;;
17171;SDS011;8701;50.150;8.756;2024-03-22T12:32:08;9.40;;;6.50;;
17171;SDS011;8701;50.150;8.756;2024-03-22T12:36:10;9.20;;;7.30;;
17171;SDS011;8701;50.150;8.756;2024-03-22T12:40:15;8.73;;;7.57;;
17171;SDS011;8701;50.150;8.756;2024-03-22T12:44:17;10.63;;;7.43;;
17171;SDS011;8701;50.150;8.756;2024-03-22T12:48:19;11.30;;;7.50;;
17171;SDS011;8701;50.150;8.756;2024-03-22T12:52:21;11.53;;;7.57;;
17171;SDS011;8701;50.150;8.756;2024-03-22T12:56:25;13.17;;;7.53;;
17171;SDS011;8701;50.150;8.756;2024-03-22T13:00:27;11.60;;;7.40;;
17171;SDS011;8701;50.150;8.756;2024-03-22T13:04:30;14.53;;;7.70;;
17171;SDS011;8701;50.150;8.756;2024-03-22T13:08:32;11.50;;;7.57;;
17171;SDS011;8701;50.150;8.756;2024-03-22T13:12:36;10.97;;;6.90;;
17171;SDS011;8701;50.150;8.756;2024-03-22T13:16:38;12.00;;;7.60;;
17171;SDS011;8701;50.150;8.756;2024-03-22T13:20:40;15.00;;;6.70;;
17171;SDS011;8701;50.150;8.756;2024-03-22T13:24:43;12.40;;;7.10;;
17171;SDS011;8701;50.150;8.756;2024-03-22T13:28:46;11.20;;;7.13;;
17171;SDS011;8701;50.150;8.756;2024-03-22T13:32:48;10.27;;;7.30;;
17171;SDS011;8701;50.150;8.756;2024-03-22T13:36:51;9.37;;;5.90;;
17171;SDS011;8701;50.150;8.756;2024-03-22T13:40:54;11.13;;;6.73;;
17171;SDS011;8701;50.150;8.756;2024-03-22T13:44:57;9.80;;;7.07;;
17171;SDS011;8701;50.150;8.756;2024-03-22T13:49:00;9.87;;;7.13;;
17171;SDS011;8701;50.150;8.756;2024-03-22T13:53:02;15.23;;;6.93;;
17171;SDS011;8701;50.150;8.756;2024-03-22T13:57:05;12.70;;;6.87;;
17171;SDS011;8701;50.150;8.756;2024-03-22T14:01:08;10.60;;;7.30;;
17171;SDS011;8701;50.150;8.756;2024-03-22T14:05:11;14.70;;;7.90;;
17171;SDS011;8701;50.150;8.756;2024-03-22T14:09:13;11.93;;;7.70;;
17171;SDS011;8701;50.150;8.756;2024-03-22T14:13:16;14.77;;;7.07;;
17171;SDS011;8701;50.150;8.756;2024-03-22T14:17:19;10.77;;;7.20;;
17171;SDS011;8701;50.150;8.756;2024-03-22T14:21:21;10.13;;;6.00;;
17171;SDS011;8701;50.150;8.756;2024-03-22T14:25:26;14.20;;;7.80;;
17171;SDS011;8701;50.150;8.756;2024-03-22T14:29:29;11.30;;;7.17;;
17171;SDS011;8701;50.150;8.756;2024-03-22T14:33:32;13.90;;;7.47;;
17171;SDS011;8701;50.150;8.756;2024-03-22T14:37:34;9.57;;;6.80;;
17171;SDS011;8701;50.150;8.756;2024-03-22T14:41:37;11.37;;;7.00;;
17171;SDS011;8701;50.150;8.756;2024-03-22T14:45:39;12.07;;;7.60;;
17171;SDS011;8701;50.150;8.756;2024-03-22T14:49:42;16.90;;;9.33;;
17171;SDS011;8701;50.150;8.756;2024-03-22T14:53:45;12.80;;;7.90;;
17171;SDS011;8701;50.150;8.756;2024-03-22T14:57:47;13.87;;;8.30;;
17171;SDS011;8701;50.150;8.756;2024-03-22T15:01:49;11.63;;;7.90;;
17171;SDS011;8701;50.150;8.756;2024-03-22T15:05:54;10.53;;;7.60;;
17171;SDS011;8701;50.150;8.756;2024-03-22T15:09:59;16.80;;;7.50;;
17171;SDS011;8701;50.150;8.756;2024-03-22T15:14:02;14.40;;;6.93;;
17171;SDS011;8701;50.150;8.756;2024-03-22T15:18:04;15.30;;;8.10;;
17171;SDS011;8701;50.150;8.756;2024-03-22T15:22:08;13.13;;;8.80;;
17171;SDS011;8701;50.150;8.756;2024-03-22T15:26:10;15.40;;;9.07;;
17171;SDS011;8701;50.150;8.756;2024-03-22T15:30:13;15.33;;;7.53;;
17171;SDS011;8701;50.150;8.756;2024-03-22T15:34:15;12.70;;;8.10;;
17171;SDS011;8701;50.150;8.756;2024-03-22T15:38:19;14.60;;;7.30;;
17171;SDS011;8701;50.150;8.756;2024-03-22T15:42:21;13.60;;;8.60;;
17171;SDS011;8701;50.150;8.756;2024-03-22T15:46:23;17.43;;;9.10;;
17171;SDS011;8701;50.150;8.756;2024-03-22T15:50:26;13.50;;;9.03;;
17171;SDS011;8701;50.150;8.756;2024-03-22T15:54:30;18.63;;;9.70;;
17171;SDS011;8701;50.150;8.756;2024-03-22T15:58:32;16.67;;;9.73;;
17171;SDS011;8701;50.150;8.756;2024-03-22T16:02:34;15.90;;;9.03;;
17171;SDS011;8701;50.150;8.756;2024-03-22T16:06:36;13.07;;;8.90;;
17171;SDS011;8701;50.150;8.756;2024-03-22T16:10:40;19.20;;;10.00;;
17171;SDS011;8701;50.150;8.756;2024-03-22T16:14:42;17.43;;;9.70;;
17171;SDS011;8701;50.150;8.756;2024-03-22T16:18:45;14.00;;;9.97;;
17171;SDS011;8701;50.150;8.756;2024-03-22T16:22:47;18.03;;;10.40;;
17171;SDS011;8701;50.150;8.756;2024-03-22T16:26:50;15.80;;;10.30;;
17171;SDS011;8701;50.150;8.756;2024-03-22T16:30:52;14.10;;;9.60;;
17171;SDS011;8701;50.150;8.756;2024-03-22T16:34:55;14.50;;;10.27;;
17171;SDS011;8701;50.150;8.756;2024-03-22T16:38:57;15.17;;;9.70;;
17171;SDS011;8701;50.150;8.756;2024-03-22T16:43:00;15.80;;;10.83;;
17171;SDS011;8701;50.150;8.756;2024-03-22T16:47:03;17.73;;;10.60;;
17171;SDS011;8701;50.150;8.756;2024-03-22T16:51:06;20.13;;;10.30;;
17171;SDS011;8701;50.150;8.756;2024-03-22T16:55:09;17.93;;;10.70;;
17171;SDS011;8701;50.150;8.756;2024-03-22T16:59:13;16.50;;;11.27;;
17171;SDS011;8701;50.150;8.756;2024-03-22T17:03:16;16.23;;;9.83;;
17171;SDS011;8701;50.150;8.756;2024-03-22T17:07:19;19.00;;;10.57;;
17171;SDS011;8701;50.150;8.756;2024-03-22T17:11:21;14.37;;;9.00;;
17171;SDS011;8701;50.150;8.756;2024-03-22T17:15:25;14.70;;;9.70;;
17171;SDS011;8701;50.150;8.756;2024-03-22T17:19:28;13.10;;;9.00;;
17171;SDS011;8701;50.150;8.756;2024-03-22T17:23:30;12.50;;;9.20;;
17171;SDS011;8701;50.150;8.756;2024-03-22T17:27:32;14.07;;;10.33;;
17171;SDS011;8701;50.150;8.756;2024-03-22T17:31:36;12.97;;;8.77;;
17171;SDS011;8701;50.150;8.756;2024-03-22T17:35:38;12.23;;;9.13;;
17171;SDS011;8701;50.150;8.756;2024-03-22T17:39:40;15.00;;;9.40;;
17171;SDS011;8701;50.150;8.756;2024-03-22T17:43:43;19.00;;;8.50;;
17171;SDS011;8701;50.150;8.756;2024-03-22T17:47:49;16.90;;;9.57;;
17171;SDS011;8701;50.150;8.756;2024-03-22T17:51:51;13.60;;;8.87;;
17171;SDS011;8701;50.150;8.756;2024-03-22T17:55:53;18.03;;;8.80;;
17171;SDS011;8701;50.150;8.756;2024-03-22T17:59:55;14.70;;;7.57;;
17171;SDS011;8701;50.150;8.756;2024-03-22T18:03:59;15.03;;;8.70;;
17171;SDS011;8701;50.150;8.756;2024-03-22T18:08:02;10.23;;;8.23;;
17171;SDS011;8701;50.150;8.756;2024-03-22T18:12:04;14.87;;;7.90;;
17171;SDS011;8701;50.150;8.756;2024-03-22T18:16:07;12.90;;;9.60;;
17171;SDS011;8701;50.150;8.756;2024-03-22T18:20:10;14.17;;;9.90;;
17171;SDS011;8701;50.150;8.756;2024-03-22T18:24:16;12.60;;;9.23;;
17171;SDS011;8701;50.150;8.756;2024-03-22T18:28:19;15.30;;;9.90;;
17171;SDS011;8701;50.150;8.756;2024-03-22T18:32:21;16.23;;;10.20;;
17171;SDS011;8701;50.150;8.756;2024-03-22T18:36:25;18.17;;;10.57;;
17171;SDS011;8701;50.150;8.756;2024-03-22T18:40:27;13.70;;;10.23;;
17171;SDS011;8701;50.150;8.756;2024-03-22T18:44:30;14.90;;;10.10;;
17171;SDS011;8701;50.150;8.756;2024-03-22T18:48:34;13.03;;;9.50;;
17171;SDS011;8701;50.150;8.756;2024-03-22T18:52:40;14.23;;;10.20;;
17171;SDS011;8701;50.150;8.756;2024-03-22T18:56:42;14.20;;;9.50;;
17171;SDS011;8701;50.150;8.756;2024-03-22T19:00:45;17.27;;;10.57;;
17171;SDS011;8701;50.150;8.756;2024-03-22T19:04:47;19.20;;;11.17;;
17171;SDS011;8701;50.150;8.756;2024-03-22T19:08:51;17.07;;;11.70;;
17171;SDS011;8701;50.150;8.756;2024-03-22T19:12:53;14.97;;;11.10;;
17171;SDS011;8701;50.150;8.756;2024-03-22T19:16:56;17.93;;;12.20;;
17171;SDS011;8701;50.150;8.756;2024-03-22T19:20:59;18.57;;;12.90;;
17171;SDS011;8701;50.150;8.756;2024-03-22T19:25:03;32.10;;;14.13;;
17171;SDS011;8701;50.150;8.756;2024-03-22T19:29:09;22.93;;;13.00;;
17171;SDS011;8701;50.150;8.756;2024-03-22T19:33:12;18.83;;;12.13;;
17171;SDS011;8701;50.150;8.756;2024-03-22T19:37:16;20.80;;;13.90;;
17171;SDS011;8701;50.150;8.756;2024-03-22T19:41:19;19.60;;;12.53;;
17171;SDS011;8701;50.150;8.756;2024-03-22T19:45:20;18.83;;;13.13;;
17171;SDS011;8701;50.150;8.756;2024-03-22T19:49:23;20.03;;;12.40;;
17171;SDS011;8701;50.150;8.756;2024-03-22T19:53:25;22.60;;;13.10;;
17171;SDS011;8701;50.150;8.756;2024-03-22T19:57:28;22.43;;;14.20;;
17171;SDS011;8701;50.150;8.756;2024-03-22T20:01:31;23.80;;;14.90;;
17171;SDS011;8701;50.150;8.756;2024-03-22T20:05:33;20.23;;;13.87;;
17171;SDS011;8701;50.150;8.756;2024-03-22T20:09:36;22.03;;;14.10;;
17171;SDS011;8701;50.150;8.756;2024-03-22T20:13:39;17.80;;;13.17;;
17171;SDS011;8701;50.150;8.756;2024-03-22T20:17:41;20.87;;;13.30;;
17171;SDS011;8701;50.150;8.756;2024-03-22T20:21:43;21.67;;;13.20;;
17171;SDS011;8701;50.150;8.756;2024-03-22T20:25:46;22.47;;;13.93;;
17171;SDS011;8701;50.150;8.756;2024-03-22T20:29:49;19.70;;;13.93;;
17171;SDS011;8701;50.150;8.756;2024-03-22T20:33:52;25.33;;;14.80;;
